Time;durP1;ratioP1;P1;durP2;ratioP2;P2;SDS_P1;SDS_P2;PMS_P1;PMS_P2;Temp;Humidity;BMP_temperature;BMP_pressure;BME280_temperature;BME280_humidity;BME280_pressure;Samples;Min_cycle;Max_cycle;Signal;HPM_P1;HPM_P2
2023/04/05 00:01:54;;;;;;;8.90;5.77;;;;;;;;;;5065043;28;20224;-63
2023/04/05 00:04:22;;;;;;;7.47;6.17;;;;;;;;;;5056482;28;20310;-64
2023/04/05 00:06:51;;;;;;;9.23;6.47;;;;;;;;;;5058056;28;20205;-63
2023/04/05 00:09:19;;;;;;;6.67;5.97;;;;;;;;;;5061263;28;20205;-63
2023/04/05 00:11:47;;;;;;;7.87;6.70;;;;;;;;;;5067887;28;20233;-63
2023/04/05 00:14:15;;;;;;;6.93;6.33;;;;;;;;;;5074502;28;20237;-63
2023/04/05 00:16:42;;;;;;;7.47;6.43;;;;;;;;;;5078327;28;20220;-63
2023/04/05 00:19:14;;;;;;;7.90;6.40;;;;;;;;;;5075094;28;20226;-63
2023/04/05 00:21:41;;;;;;;10.47;6.73;;;;;;;;;;5074963;28;20721;-63
2023/04/05 00:24:14;;;;;;;9.10;6.30;;;;;;;;;;5071936;28;20209;-64
2023/04/05 00:26:43;;;;;;;9.60;6.37;;;;;;;;;;5076365;28;20821;-64
2023/04/05 00:29:10;;;;;;;9.00;6.17;;;;;;;;;;5075462;28;20236;-63
2023/04/05 00:31:37;;;;;;;10.40;7.97;;;;;;;;;;5071424;28;20448;-62
2023/04/05 00:34:07;;;;;;;8.53;6.97;;;;;;;;;;5071064;28;20208;-63
2023/04/05 00:36:35;;;;;;;6.93;6.23;;;;;;;;;;5075027;28;20240;-63
2023/04/05 00:39:02;;;;;;;7.73;6.33;;;;;;;;;;5074882;28;20286;-63
2023/04/05 00:41:30;;;;;;;8.57;6.87;;;;;;;;;;5064123;28;20204;-64
2023/04/05 00:43:58;;;;;;;10.57;6.47;;;;;;;;;;5061911;28;20205;-62
2023/04/05 00:46:27;;;;;;;7.07;6.37;;;;;;;;;;5070185;28;20228;-63
2023/04/05 00:48:55;;;;;;;7.70;6.90;;;;;;;;;;5061433;28;20228;-62
2023/04/05 00:51:23;;;;;;;7.73;6.90;;;;;;;;;;5060104;28;20216;-64
2023/04/05 00:53:51;;;;;;;10.33;6.90;;;;;;;;;;5063536;28;20239;-62
2023/04/05 00:56:20;;;;;;;9.80;6.13;;;;;;;;;;5055250;28;20225;-62
2023/04/05 00:58:50;;;;;;;8.80;7.23;;;;;;;;;;5061513;28;20236;-63
2023/04/05 01:01:19;;;;;;;8.50;6.77;;;;;;;;;;5075251;28;20255;-64
2023/04/05 01:03:51;;;;;;;8.90;6.77;;;;;;;;;;5061437;28;20205;-63
2023/04/05 01:06:30;;;;;;;10.23;6.80;;;;;;;;;;5060521;28;21017;-61
2023/04/05 01:09:16;;;;;;;7.93;6.67;;;;;;;;;;5071341;28;20261;-63
2023/04/05 01:11:45;;;;;;;8.10;6.50;;;;;;;;;;5057863;28;20476;-63
2023/04/05 01:14:12;;;;;;;8.07;6.77;;;;;;;;;;5063029;28;20208;-64
2023/04/05 01:16:39;;;;;;;9.00;6.83;;;;;;;;;;5064459;28;20256;-64
2023/04/05 01:19:08;;;;;;;9.57;7.30;;;;;;;;;;5058354;28;20295;-64
2023/04/05 01:21:36;;;;;;;7.50;6.80;;;;;;;;;;5060604;28;20698;-63
2023/04/05 01:24:24;;;;;;;7.53;6.83;;;;;;;;;;5062460;28;20265;-64
2023/04/05 01:26:57;;;;;;;12.53;7.10;;;;;;;;;;5059923;28;20308;-62
2023/04/05 01:29:28;;;;;;;8.50;7.60;;;;;;;;;;5075865;28;20791;-64
2023/04/05 01:31:55;;;;;;;8.23;6.57;;;;;;;;;;5062426;28;20636;-62
2023/04/05 01:34:33;;;;;;;7.43;6.37;;;;;;;;;;5078066;28;21000;-63
2023/04/05 01:37:02;;;;;;;8.07;6.20;;;;;;;;;;5062894;28;20286;-63
2023/04/05 01:39:30;;;;;;;9.13;7.03;;;;;;;;;;5060135;28;20232;-63
2023/04/05 01:42:01;;;;;;;9.07;6.97;;;;;;;;;;5059887;28;20282;-63
2023/04/05 01:44:29;;;;;;;9.77;7.57;;;;;;;;;;5059210;28;20205;-64
2023/04/05 01:46:57;;;;;;;9.17;7.03;;;;;;;;;;5069283;28;20711;-63
2023/04/05 01:49:24;;;;;;;8.97;6.97;;;;;;;;;;5066480;28;20210;-63
2023/04/05 01:51:52;;;;;;;7.77;7.00;;;;;;;;;;5047420;28;20309;-61
2023/04/05 01:54:19;;;;;;;8.07;7.20;;;;;;;;;;5061591;28;20233;-62
2023/04/05 01:56:46;;;;;;;10.00;7.53;;;;;;;;;;5066682;28;20220;-63
2023/04/05 01:59:14;;;;;;;9.27;7.50;;;;;;;;;;5073407;28;20232;-64
2023/04/05 02:01:41;;;;;;;9.57;7.17;;;;;;;;;;5077941;28;20228;-63
2023/04/05 02:04:08;;;;;;;11.20;7.80;;;;;;;;;;5062180;28;20639;-64
2023/04/05 02:06:36;;;;;;;8.67;7.20;;;;;;;;;;5060535;28;20311;-63
2023/04/05 02:09:03;;;;;;;9.83;7.33;;;;;;;;;;5057083;28;20253;-63
2023/04/05 02:11:30;;;;;;;9.63;8.00;;;;;;;;;;5070698;28;20247;-64
2023/04/05 02:13:58;;;;;;;10.60;7.07;;;;;;;;;;5090169;28;20240;-62
2023/04/05 02:16:25;;;;;;;9.17;6.90;;;;;;;;;;5072584;28;20228;-63
2023/04/05 02:18:56;;;;;;;7.20;6.57;;;;;;;;;;5072932;28;20224;-63
2023/04/05 02:21:24;;;;;;;8.93;7.80;;;;;;;;;;5070353;28;20208;-64
2023/04/05 02:23:55;;;;;;;10.23;8.27;;;;;;;;;;5071257;28;20223;-63
2023/04/05 02:26:22;;;;;;;8.00;7.20;;;;;;;;;;5074060;28;20213;-62
2023/04/05 02:28:50;;;;;;;10.97;8.10;;;;;;;;;;5072714;28;20237;-64
2023/04/05 02:31:17;;;;;;;10.83;8.03;;;;;;;;;;5072759;28;20231;-63
2023/04/05 02:33:45;;;;;;;9.43;8.27;;;;;;;;;;5072184;28;20205;-64
2023/04/05 02:36:13;;;;;;;13.00;8.73;;;;;;;;;;5071721;28;20311;-63
2023/04/05 02:38:40;;;;;;;8.67;7.10;;;;;;;;;;5066833;28;20279;-62
2023/04/05 02:41:10;;;;;;;11.90;7.90;;;;;;;;;;5076695;28;20890;-62
2023/04/05 02:43:38;;;;;;;9.63;7.50;;;;;;;;;;5065849;28;20209;-63
2023/04/05 02:46:05;;;;;;;8.63;7.20;;;;;;;;;;5054368;28;20208;-63
2023/04/05 02:48:33;;;;;;;9.17;7.23;;;;;;;;;;5060866;28;20235;-62
2023/04/05 02:51:00;;;;;;;8.00;6.90;;;;;;;;;;5061185;28;20623;-63
2023/04/05 02:53:27;;;;;;;9.07;7.03;;;;;;;;;;5060171;28;20216;-64
2023/04/05 02:55:56;;;;;;;11.30;6.73;;;;;;;;;;5059577;28;20592;-63
2023/04/05 02:58:24;;;;;;;7.97;6.70;;;;;;;;;;5059288;28;20349;-64
2023/04/05 03:00:53;;;;;;;7.47;6.77;;;;;;;;;;5053581;28;20209;-64
2023/04/05 03:03:21;;;;;;;10.67;6.77;;;;;;;;;;5058764;28;20255;-63
2023/04/05 03:05:48;;;;;;;9.03;6.97;;;;;;;;;;5061452;28;20347;-64
2023/04/05 03:08:22;;;;;;;8.00;7.07;;;;;;;;;;5069738;28;20295;-65
2023/04/05 03:10:53;;;;;;;8.37;6.87;;;;;;;;;;5053803;28;20223;-64
2023/04/05 03:13:21;;;;;;;7.30;6.60;;;;;;;;;;5060719;28;20241;-64
2023/04/05 03:15:48;;;;;;;7.50;6.70;;;;;;;;;;5065588;28;20324;-63
2023/04/05 03:18:15;;;;;;;8.67;6.70;;;;;;;;;;5065338;28;20236;-64
2023/04/05 03:20:44;;;;;;;11.60;8.43;;;;;;;;;;5067687;28;20209;-63
2023/04/05 03:23:12;;;;;;;12.73;9.20;;;;;;;;;;5062707;28;20202;-62
2023/04/05 03:25:40;;;;;;;13.63;8.40;;;;;;;;;;5066661;28;20220;-65
2023/04/05 03:28:08;;;;;;;9.63;7.37;;;;;;;;;;5070183;28;20237;-64
2023/04/05 03:30:35;;;;;;;10.33;7.60;;;;;;;;;;5065240;28;20197;-63
2023/04/05 03:33:03;;;;;;;25.93;15.30;;;;;;;;;;5061273;28;20293;-65
2023/04/05 03:35:30;;;;;;;25.47;14.80;;;;;;;;;;5064573;28;20775;-64
2023/04/05 03:37:58;;;;;;;13.80;9.27;;;;;;;;;;5069345;28;20589;-63
2023/04/05 03:40:25;;;;;;;9.00;7.57;;;;;;;;;;5079471;28;20236;-64
2023/04/05 03:42:52;;;;;;;10.60;8.00;;;;;;;;;;5060633;28;20204;-64
2023/04/05 03:45:20;;;;;;;11.33;7.77;;;;;;;;;;5076832;28;20246;-64
2023/04/05 03:47:50;;;;;;;10.83;8.53;;;;;;;;;;5070227;28;20298;-64
2023/04/05 03:50:18;;;;;;;10.87;8.20;;;;;;;;;;5065547;28;20217;-62
2023/04/05 03:52:46;;;;;;;14.20;9.07;;;;;;;;;;5065749;28;20291;-64
2023/04/05 03:55:15;;;;;;;11.33;8.53;;;;;;;;;;5064788;28;20361;-64
2023/04/05 03:57:43;;;;;;;9.73;8.37;;;;;;;;;;5078237;28;20230;-65
2023/04/05 04:00:14;;;;;;;11.83;8.60;;;;;;;;;;5065025;28;20201;-64
2023/04/05 04:02:42;;;;;;;10.63;8.43;;;;;;;;;;5074534;28;20205;-62
2023/04/05 04:05:10;;;;;;;20.83;12.47;;;;;;;;;;5063868;28;20209;-62
2023/04/05 04:07:38;;;;;;;53.07;27.47;;;;;;;;;;5058518;28;20233;-63
2023/04/05 04:10:06;;;;;;;72.40;34.30;;;;;;;;;;5074173;28;20256;-64
2023/04/05 04:12:33;;;;;;;47.33;24.17;;;;;;;;;;5083255;28;20205;-64
2023/04/05 04:15:01;;;;;;;39.00;20.77;;;;;;;;;;5075012;28;20197;-65
2023/04/05 04:17:36;;;;;;;35.97;19.70;;;;;;;;;;5086852;28;20231;-65
2023/04/05 04:20:09;;;;;;;20.40;12.53;;;;;;;;;;5082496;28;20226;-64
2023/04/05 04:22:39;;;;;;;11.70;8.53;;;;;;;;;;5088935;28;20214;-63
2023/04/05 04:25:11;;;;;;;9.37;8.30;;;;;;;;;;5081907;28;20255;-63
2023/04/05 04:27:40;;;;;;;10.90;8.80;;;;;;;;;;5059457;28;20231;-64
2023/04/05 04:30:09;;;;;;;10.40;8.13;;;;;;;;;;5073930;28;20200;-64
2023/04/05 04:32:53;;;;;;;9.60;7.83;;;;;;;;;;5072274;28;20204;-65
2023/04/05 04:35:24;;;;;;;9.13;7.80;;;;;;;;;;5083705;28;20207;-64
2023/04/05 04:38:04;;;;;;;11.43;9.07;;;;;;;;;;5090197;28;20232;-64
2023/04/05 04:40:39;;;;;;;11.83;9.37;;;;;;;;;;5085082;28;20210;-64
2023/04/05 04:43:16;;;;;;;11.03;8.43;;;;;;;;;;5071913;28;20302;-63
2023/04/05 04:45:47;;;;;;;8.17;6.97;;;;;;;;;;5059443;28;20554;-64
2023/04/05 04:48:15;;;;;;;10.30;7.90;;;;;;;;;;5060422;28;20720;-64
2023/04/05 04:50:43;;;;;;;16.20;9.80;;;;;;;;;;5071425;28;20650;-64
2023/04/05 04:53:12;;;;;;;17.67;10.90;;;;;;;;;;5061050;28;20296;-64
2023/04/05 04:55:43;;;;;;;13.93;10.43;;;;;;;;;;5058560;28;20201;-64
2023/04/05 04:58:11;;;;;;;14.23;10.97;;;;;;;;;;5055917;28;20273;-64
2023/04/05 05:00:39;;;;;;;16.57;11.40;;;;;;;;;;5071674;28;20670;-62
2023/04/05 05:03:10;;;;;;;19.53;10.47;;;;;;;;;;5070387;28;20241;-64
2023/04/05 05:05:45;;;;;;;18.77;10.67;;;;;;;;;;5073630;28;20204;-64
2023/04/05 05:08:13;;;;;;;18.73;11.30;;;;;;;;;;5064770;28;20789;-64
2023/04/05 05:10:40;;;;;;;13.37;11.40;;;;;;;;;;5072239;28;20209;-63
2023/04/05 05:13:10;;;;;;;17.73;11.30;;;;;;;;;;5084446;28;20227;-64
2023/04/05 05:15:40;;;;;;;14.13;9.03;;;;;;;;;;5064396;28;20717;-65
2023/04/05 05:18:08;;;;;;;10.13;8.23;;;;;;;;;;5064403;28;20245;-64
2023/04/05 05:20:36;;;;;;;10.90;8.07;;;;;;;;;;5062497;28;20199;-63
2023/04/05 05:23:04;;;;;;;8.87;7.87;;;;;;;;;;5064119;28;20205;-64
2023/04/05 05:25:31;;;;;;;9.47;7.97;;;;;;;;;;5062825;28;20203;-63
2023/04/05 05:27:59;;;;;;;11.13;8.07;;;;;;;;;;5059612;28;20315;-63
2023/04/05 05:30:27;;;;;;;10.77;8.03;;;;;;;;;;5059874;28;20258;-64
2023/04/05 05:32:56;;;;;;;9.90;8.07;;;;;;;;;;5075937;28;20225;-64
2023/04/05 05:35:24;;;;;;;11.50;7.70;;;;;;;;;;5060245;28;20578;-64
2023/04/05 05:37:51;;;;;;;9.93;8.00;;;;;;;;;;5082120;28;20572;-63
2023/04/05 05:40:19;;;;;;;9.70;8.07;;;;;;;;;;5077606;28;20233;-64
2023/04/05 05:42:46;;;;;;;9.33;8.17;;;;;;;;;;5064468;28;20208;-63
2023/04/05 05:45:13;;;;;;;9.20;8.30;;;;;;;;;;5063021;28;20208;-63
2023/04/05 05:47:41;;;;;;;10.97;8.83;;;;;;;;;;5070164;28;20580;-64
2023/04/05 05:50:09;;;;;;;13.93;8.37;;;;;;;;;;5068724;28;20285;-64
2023/04/05 05:52:38;;;;;;;9.97;8.47;;;;;;;;;;5065329;28;20216;-64
2023/04/05 05:55:06;;;;;;;10.87;8.70;;;;;;;;;;5070629;28;20299;-64
2023/04/05 05:57:33;;;;;;;11.43;8.00;;;;;;;;;;5064793;28;20281;-63
2023/04/05 06:00:01;;;;;;;10.00;8.30;;;;;;;;;;5069016;28;20255;-64
2023/04/05 06:02:28;;;;;;;12.57;8.90;;;;;;;;;;5068885;28;20729;-63
2023/04/05 06:04:56;;;;;;;12.73;9.40;;;;;;;;;;5068088;28;20875;-62
2023/04/05 06:07:24;;;;;;;12.53;9.17;;;;;;;;;;5070621;28;20255;-64
2023/04/05 06:09:51;;;;;;;13.43;10.47;;;;;;;;;;5064679;28;20236;-64
2023/04/05 06:12:22;;;;;;;13.73;10.73;;;;;;;;;;5081569;28;20772;-64
2023/04/05 06:14:50;;;;;;;14.47;11.23;;;;;;;;;;5079185;28;20216;-63
2023/04/05 06:17:17;;;;;;;24.20;15.80;;;;;;;;;;5068387;28;20233;-63
2023/04/05 06:19:45;;;;;;;39.67;21.23;;;;;;;;;;5062772;28;20204;-64
2023/04/05 06:22:12;;;;;;;31.97;18.10;;;;;;;;;;5061930;28;20254;-64
2023/04/05 06:24:39;;;;;;;16.30;10.13;;;;;;;;;;5069652;28;20283;-64
2023/04/05 06:27:07;;;;;;;13.27;9.43;;;;;;;;;;5070978;28;20200;-64
2023/04/05 06:29:34;;;;;;;14.77;9.37;;;;;;;;;;5063460;28;20213;-64
2023/04/05 06:32:09;;;;;;;11.70;8.87;;;;;;;;;;5134688;27;21366;-64
2023/04/05 06:34:36;;;;;;;9.70;8.07;;;;;;;;;;5096790;28;20290;-64
2023/04/05 06:37:05;;;;;;;12.40;9.03;;;;;;;;;;5098763;28;20200;-65
2023/04/05 06:39:32;;;;;;;10.40;7.93;;;;;;;;;;5078934;28;20261;-64
2023/04/05 06:42:00;;;;;;;7.67;6.87;;;;;;;;;;5075774;28;20207;-64
2023/04/05 06:44:27;;;;;;;8.83;6.60;;;;;;;;;;5092468;28;20203;-64
2023/04/05 06:46:55;;;;;;;8.87;7.33;;;;;;;;;;5077654;28;20237;-64
2023/04/05 06:49:22;;;;;;;8.00;5.97;;;;;;;;;;5078388;28;20719;-65
2023/04/05 06:51:50;;;;;;;8.07;6.00;;;;;;;;;;5092910;28;20267;-64
2023/04/05 06:54:17;;;;;;;7.57;5.63;;;;;;;;;;5078268;28;20266;-64
2023/04/05 06:56:44;;;;;;;8.10;5.77;;;;;;;;;;5077055;28;20250;-63
2023/04/05 06:59:12;;;;;;;9.40;5.80;;;;;;;;;;5077419;28;20217;-66
2023/04/05 07:01:39;;;;;;;6.43;5.63;;;;;;;;;;5094329;28;20934;-64
2023/04/05 07:04:07;;;;;;;6.40;5.73;;;;;;;;;;5093637;28;20208;-64
2023/04/05 07:06:37;;;;;;;6.70;5.73;;;;;;;;;;5078222;28;20337;-64
2023/04/05 07:09:05;;;;;;;6.00;5.50;;;;;;;;;;5092564;28;20854;-64
2023/04/05 07:11:32;;;;;;;10.13;5.77;;;;;;;;;;5077009;28;20227;-64
2023/04/05 07:14:00;;;;;;;6.60;5.30;;;;;;;;;;5080432;28;20265;-64
2023/04/05 07:16:27;;;;;;;6.63;5.93;;;;;;;;;;5076846;28;20207;-63
2023/04/05 07:18:56;;;;;;;7.97;5.90;;;;;;;;;;5078821;28;20226;-64
2023/04/05 07:21:24;;;;;;;6.30;5.70;;;;;;;;;;5095092;28;20232;-64
2023/04/05 07:23:52;;;;;;;6.17;5.53;;;;;;;;;;5090724;28;20340;-64
2023/04/05 07:26:21;;;;;;;6.17;5.57;;;;;;;;;;5091923;28;21036;-64
2023/04/05 07:28:48;;;;;;;6.50;5.83;;;;;;;;;;5092563;28;20232;-62
2023/04/05 07:31:16;;;;;;;10.80;6.60;;;;;;;;;;5077667;28;20250;-63
2023/04/05 07:33:43;;;;;;;6.67;5.53;;;;;;;;;;5079197;28;20558;-64
2023/04/05 07:36:11;;;;;;;6.30;5.70;;;;;;;;;;5074324;28;20214;-63
2023/04/05 07:38:38;;;;;;;7.07;5.53;;;;;;;;;;5074427;28;20220;-64
2023/04/05 07:41:05;;;;;;;6.33;5.00;;;;;;;;;;5093234;28;20262;-64
2023/04/05 07:43:32;;;;;;;6.27;5.23;;;;;;;;;;5069127;28;20660;-64
2023/04/05 07:46:03;;;;;;;7.50;5.70;;;;;;;;;;5074506;28;20300;-63
2023/04/05 07:48:31;;;;;;;6.70;5.27;;;;;;;;;;5083112;28;20369;-64
2023/04/05 07:51:06;;;;;;;6.47;5.43;;;;;;;;;;5065867;28;20346;-63
2023/04/05 07:53:33;;;;;;;8.00;5.47;;;;;;;;;;5072489;28;20196;-63
2023/04/05 07:56:07;;;;;;;7.57;5.63;;;;;;;;;;5073278;28;20208;-63
2023/04/05 07:58:35;;;;;;;6.60;5.43;;;;;;;;;;5086277;28;20220;-63
2023/04/05 08:01:03;;;;;;;6.57;5.97;;;;;;;;;;5083279;28;20236;-63
2023/04/05 08:03:31;;;;;;;7.13;5.10;;;;;;;;;;5074955;28;20213;-63
2023/04/05 08:05:58;;;;;;;7.03;5.27;;;;;;;;;;5077220;28;20216;-63
2023/04/05 08:08:26;;;;;;;16.00;8.50;;;;;;;;;;5062279;28;20225;-64
2023/04/05 08:10:53;;;;;;;9.40;6.03;;;;;;;;;;5069511;28;20217;-63
2023/04/05 08:13:20;;;;;;;8.00;5.30;;;;;;;;;;5073799;28;20231;-64
2023/04/05 08:15:48;;;;;;;7.83;5.77;;;;;;;;;;5073997;28;20224;-63
2023/04/05 08:18:15;;;;;;;6.60;5.23;;;;;;;;;;5092104;28;20840;-63
2023/04/05 08:20:43;;;;;;;7.00;5.30;;;;;;;;;;5073739;28;20204;-64
2023/04/05 08:23:10;;;;;;;5.67;5.10;;;;;;;;;;5073599;28;20213;-64
2023/04/05 08:25:37;;;;;;;5.67;4.80;;;;;;;;;;5073896;28;20812;-64
2023/04/05 08:28:08;;;;;;;6.43;5.40;;;;;;;;;;5074454;28;20232;-63
2023/04/05 08:30:35;;;;;;;10.33;5.20;;;;;;;;;;5090243;28;20229;-64
2023/04/05 08:33:03;;;;;;;6.60;5.20;;;;;;;;;;5073829;28;20204;-63
2023/04/05 08:35:31;;;;;;;5.63;5.13;;;;;;;;;;5073954;28;20633;-64
2023/04/05 08:37:58;;;;;;;6.33;5.53;;;;;;;;;;5071403;28;20754;-62
2023/04/05 08:40:32;;;;;;;6.17;5.10;;;;;;;;;;5070886;28;20243;-64
2023/04/05 08:43:05;;;;;;;8.43;5.23;;;;;;;;;;5078768;28;20201;-63
2023/04/05 08:45:33;;;;;;;6.37;4.80;;;;;;;;;;5062802;28;20201;-64
2023/04/05 08:48:01;;;;;;;5.63;4.77;;;;;;;;;;5062338;28;20222;-64
2023/04/05 08:50:28;;;;;;;5.67;5.13;;;;;;;;;;5077237;28;20203;-64
2023/04/05 08:52:55;;;;;;;4.97;4.53;;;;;;;;;;5070590;28;20678;-64
2023/04/05 08:55:23;;;;;;;6.10;4.80;;;;;;;;;;5060878;28;20232;-64
2023/04/05 08:57:53;;;;;;;5.27;4.77;;;;;;;;;;5075045;28;20648;-64
2023/04/05 09:00:20;;;;;;;7.33;5.10;;;;;;;;;;5062915;28;20262;-64
2023/04/05 09:02:50;;;;;;;5.50;4.90;;;;;;;;;;5063981;28;20240;-64
2023/04/05 09:05:19;;;;;;;5.63;5.10;;;;;;;;;;5067946;28;20254;-63
2023/04/05 09:07:47;;;;;;;6.60;5.70;;;;;;;;;;5071737;28;20384;-63
2023/04/05 09:10:15;;;;;;;6.17;4.90;;;;;;;;;;5070972;28;20884;-63
2023/04/05 09:12:42;;;;;;;6.07;5.20;;;;;;;;;;5071614;28;20220;-63
2023/04/05 09:15:10;;;;;;;6.37;5.70;;;;;;;;;;5066903;28;20208;-64
2023/04/05 09:17:39;;;;;;;6.43;5.43;;;;;;;;;;5086457;28;20583;-64
2023/04/05 09:20:06;;;;;;;6.50;4.70;;;;;;;;;;5074181;28;20200;-63
2023/04/05 09:22:44;;;;;;;6.53;5.10;;;;;;;;;;5071465;28;20204;-64
2023/04/05 09:25:12;;;;;;;6.80;5.27;;;;;;;;;;5069636;28;20231;-64
2023/04/05 09:27:55;;;;;;;6.93;5.57;;;;;;;;;;5066537;28;20228;-63
2023/04/05 09:30:23;;;;;;;5.37;4.87;;;;;;;;;;5075589;28;20220;-63
2023/04/05 09:32:51;;;;;;;7.73;5.80;;;;;;;;;;5064778;28;20644;-64
2023/04/05 09:35:19;;;;;;;7.03;5.53;;;;;;;;;;5054124;28;20220;-64
2023/04/05 09:37:55;;;;;;;6.43;5.23;;;;;;;;;;5062772;28;20286;-63
2023/04/05 09:40:23;;;;;;;8.10;5.13;;;;;;;;;;5073127;28;20282;-62
2023/04/05 09:42:52;;;;;;;5.43;4.83;;;;;;;;;;5071176;28;20205;-64
2023/04/05 09:45:21;;;;;;;5.23;4.73;;;;;;;;;;5063688;28;20221;-64
2023/04/05 09:47:56;;;;;;;6.67;5.00;;;;;;;;;;5071624;28;20282;-63
2023/04/05 09:50:23;;;;;;;4.83;4.43;;;;;;;;;;5062702;28;20258;-64
2023/04/05 09:52:51;;;;;;;5.13;4.63;;;;;;;;;;5052146;28;20217;-64
2023/04/05 09:55:27;;;;;;;5.63;4.97;;;;;;;;;;5077178;28;20306;-64
2023/04/05 09:57:54;;;;;;;5.27;4.77;;;;;;;;;;5073671;28;20220;-63
2023/04/05 10:00:23;;;;;;;5.47;4.97;;;;;;;;;;5075490;28;20206;-63
2023/04/05 10:02:54;;;;;;;15.80;9.07;;;;;;;;;;5071148;28;20232;-63
2023/04/05 10:05:26;;;;;;;7.37;5.00;;;;;;;;;;5076189;28;20312;-63
2023/04/05 10:07:54;;;;;;;5.67;5.17;;;;;;;;;;5059669;28;20228;-63
2023/04/05 10:10:22;;;;;;;5.33;4.83;;;;;;;;;;5057235;28;20208;-64
2023/04/05 10:12:50;;;;;;;6.37;5.07;;;;;;;;;;5083076;28;20310;-63
2023/04/05 10:15:18;;;;;;;7.17;5.03;;;;;;;;;;5068391;28;20743;-64
2023/04/05 10:18:06;;;;;;;6.60;4.60;;;;;;;;;;5065343;28;20417;-64
2023/04/05 10:20:39;;;;;;;5.80;5.20;;;;;;;;;;5061689;28;20220;-63
2023/04/05 10:23:09;;;;;;;6.27;5.20;;;;;;;;;;5060247;28;20205;-64
2023/04/05 10:25:42;;;;;;;6.43;5.33;;;;;;;;;;5067169;28;20278;-65
2023/04/05 10:28:09;;;;;;;6.00;5.17;;;;;;;;;;5065767;28;20257;-62
2023/04/05 10:30:41;;;;;;;5.47;4.70;;;;;;;;;;5086113;28;20871;-65
2023/04/05 10:33:21;;;;;;;9.20;5.27;;;;;;;;;;5067711;28;20286;-64
2023/04/05 10:35:52;;;;;;;6.07;5.47;;;;;;;;;;5080094;28;20197;-64
2023/04/05 10:38:26;;;;;;;8.50;6.90;;;;;;;;;;5084240;28;20231;-64
2023/04/05 10:41:05;;;;;;;6.50;5.13;;;;;;;;;;5061712;28;20208;-64
2023/04/05 10:43:34;;;;;;;5.90;4.80;;;;;;;;;;5073152;28;20300;-64
2023/04/05 10:46:02;;;;;;;5.63;4.93;;;;;;;;;;5060135;28;20293;-64
2023/04/05 10:48:48;;;;;;;5.63;5.10;;;;;;;;;;5059962;28;20224;-64
2023/04/05 10:51:16;;;;;;;5.57;4.80;;;;;;;;;;5074645;28;20260;-63
2023/04/05 10:53:43;;;;;;;6.20;5.67;;;;;;;;;;5059447;28;20201;-64
2023/04/05 10:56:11;;;;;;;7.93;5.23;;;;;;;;;;5060814;28;20207;-64
2023/04/05 10:58:41;;;;;;;5.47;4.90;;;;;;;;;;5060402;28;20252;-62
2023/04/05 11:01:09;;;;;;;8.40;5.40;;;;;;;;;;5077164;28;20201;-64
2023/04/05 11:03:49;;;;;;;5.37;4.87;;;;;;;;;;5060837;28;20197;-63
2023/04/05 11:06:20;;;;;;;5.80;5.17;;;;;;;;;;5074421;28;20624;-65
2023/04/05 11:08:48;;;;;;;5.60;5.10;;;;;;;;;;5074863;28;20777;-62
2023/04/05 11:11:16;;;;;;;8.57;5.60;;;;;;;;;;5061693;28;20777;-64
2023/04/05 11:13:50;;;;;;;5.63;5.13;;;;;;;;;;5071958;28;20233;-64
2023/04/05 11:16:18;;;;;;;5.73;5.23;;;;;;;;;;5058979;28;20269;-63
2023/04/05 11:18:46;;;;;;;6.30;5.13;;;;;;;;;;5061951;28;20328;-64
2023/04/05 11:21:24;;;;;;;6.23;5.63;;;;;;;;;;5076203;28;20201;-62
2023/04/05 11:24:10;;;;;;;7.07;5.17;;;;;;;;;;5078523;28;20232;-62
2023/04/05 11:26:44;;;;;;;5.90;5.30;;;;;;;;;;5078440;28;20666;-63
2023/04/05 11:29:11;;;;;;;6.87;5.57;;;;;;;;;;5062538;28;20646;-64
2023/04/05 11:32:00;;;;;;;6.23;5.43;;;;;;;;;;5062811;28;20305;-64
2023/04/05 11:34:28;;;;;;;7.20;4.87;;;;;;;;;;5078575;28;20212;-64
2023/04/05 11:36:55;;;;;;;6.73;5.13;;;;;;;;;;5062443;28;20301;-64
2023/04/05 11:39:23;;;;;;;6.60;5.40;;;;;;;;;;5088175;28;20358;-63
2023/04/05 11:42:00;;;;;;;5.70;5.20;;;;;;;;;;5066243;28;20236;-64
2023/04/05 11:44:28;;;;;;;5.90;5.17;;;;;;;;;;5061360;28;20744;-64
2023/04/05 11:46:55;;;;;;;5.07;4.57;;;;;;;;;;5070272;28;20243;-64
2023/04/05 11:49:23;;;;;;;9.80;5.40;;;;;;;;;;5065895;28;20228;-64
2023/04/05 11:51:52;;;;;;;6.67;5.30;;;;;;;;;;5077636;28;20645;-64
2023/04/05 11:54:32;;;;;;;6.83;5.27;;;;;;;;;;5062191;28;20266;-65
2023/04/05 11:57:00;;;;;;;5.37;4.87;;;;;;;;;;5077362;28;20298;-64
2023/04/05 11:59:32;;;;;;;5.50;5.00;;;;;;;;;;5064664;28;20204;-65
2023/04/05 12:02:05;;;;;;;7.07;5.73;;;;;;;;;;5077597;28;20214;-65
2023/04/05 12:04:32;;;;;;;5.67;5.17;;;;;;;;;;5062904;28;20213;-64
2023/04/05 12:07:15;;;;;;;6.90;5.10;;;;;;;;;;5078255;28;20204;-63
2023/04/05 12:09:58;;;;;;;6.93;5.17;;;;;;;;;;5080516;28;20232;-63
2023/04/05 12:12:25;;;;;;;6.27;5.33;;;;;;;;;;5073732;28;20817;-65
2023/04/05 12:14:59;;;;;;;5.83;5.30;;;;;;;;;;5083546;28;20235;-64
2023/04/05 12:17:39;;;;;;;5.73;5.23;;;;;;;;;;5089943;28;20695;-62
2023/04/05 12:20:08;;;;;;;6.57;5.67;;;;;;;;;;5070274;28;20228;-64
2023/04/05 12:22:40;;;;;;;6.37;5.73;;;;;;;;;;5073868;28;20196;-64
2023/04/05 12:25:07;;;;;;;5.90;5.40;;;;;;;;;;5087590;28;20201;-63
2023/04/05 12:27:35;;;;;;;6.60;5.93;;;;;;;;;;5073462;28;20369;-64
2023/04/05 12:30:13;;;;;;;6.43;5.83;;;;;;;;;;5071637;28;20231;-64
2023/04/05 12:32:41;;;;;;;6.93;6.23;;;;;;;;;;5073599;28;20223;-64
2023/04/05 12:35:13;;;;;;;6.30;5.70;;;;;;;;;;5073305;28;20228;-65
2023/04/05 12:37:40;;;;;;;6.30;5.70;;;;;;;;;;5073269;28;20736;-65
2023/04/05 12:40:08;;;;;;;5.93;5.27;;;;;;;;;;5073610;28;20284;-64
2023/04/05 12:42:37;;;;;;;7.47;5.80;;;;;;;;;;5062143;28;20568;-64
2023/04/05 12:45:05;;;;;;;6.20;5.53;;;;;;;;;;5058007;28;20287;-65
2023/04/05 12:47:34;;;;;;;7.07;5.80;;;;;;;;;;5076971;28;20791;-64
2023/04/05 12:50:12;;;;;;;6.53;5.90;;;;;;;;;;5062868;28;20201;-62
2023/04/05 12:52:51;;;;;;;6.70;5.80;;;;;;;;;;5074564;28;20880;-63
2023/04/05 12:55:20;;;;;;;6.77;5.83;;;;;;;;;;5057968;28;20201;-64
2023/04/05 12:57:51;;;;;;;5.53;5.07;;;;;;;;;;5079232;28;20325;-64
2023/04/05 13:00:23;;;;;;;5.60;5.10;;;;;;;;;;5062788;28;20677;-64
2023/04/05 13:02:52;;;;;;;5.53;5.03;;;;;;;;;;5059327;28;20623;-64
2023/04/05 13:05:20;;;;;;;7.50;5.43;;;;;;;;;;5061511;28;20217;-64
2023/04/05 13:07:48;;;;;;;6.57;5.23;;;;;;;;;;5059136;28;20266;-63
2023/04/05 13:10:15;;;;;;;5.53;5.10;;;;;;;;;;5062110;28;20248;-64
2023/04/05 13:12:44;;;;;;;6.07;5.47;;;;;;;;;;5070277;28;20232;-64
2023/04/05 13:15:13;;;;;;;5.87;5.33;;;;;;;;;;5064566;28;20197;-64
2023/04/05 13:17:41;;;;;;;5.80;5.30;;;;;;;;;;5071663;28;20222;-64
2023/04/05 13:20:09;;;;;;;5.47;4.97;;;;;;;;;;5063034;28;20209;-64
2023/04/05 13:22:37;;;;;;;6.67;5.93;;;;;;;;;;5061039;28;20205;-64
2023/04/05 13:25:05;;;;;;;7.17;6.27;;;;;;;;;;5063330;28;20204;-64
2023/04/05 13:27:32;;;;;;;5.93;4.80;;;;;;;;;;5062532;28;20285;-63
2023/04/05 13:29:59;;;;;;;10.87;7.57;;;;;;;;;;5076849;28;20796;-64
2023/04/05 13:32:27;;;;;;;5.60;5.10;;;;;;;;;;5061918;28;20939;-64
2023/04/05 13:34:54;;;;;;;5.27;4.77;;;;;;;;;;5075465;28;20292;-64
2023/04/05 13:37:22;;;;;;;5.60;5.10;;;;;;;;;;5064930;28;20225;-64
2023/04/05 13:39:49;;;;;;;5.57;5.00;;;;;;;;;;5074890;28;20674;-62
2023/04/05 13:42:17;;;;;;;5.40;4.90;;;;;;;;;;5062006;28;20209;-62
2023/04/05 13:44:44;;;;;;;6.00;4.87;;;;;;;;;;5076157;28;20206;-65
2023/04/05 13:47:13;;;;;;;5.40;5.00;;;;;;;;;;5066682;28;20232;-64
2023/04/05 13:49:41;;;;;;;5.43;4.93;;;;;;;;;;5076206;28;20224;-63
2023/04/05 13:52:09;;;;;;;4.77;4.37;;;;;;;;;;5076486;28;20288;-64
2023/04/05 13:54:37;;;;;;;5.60;5.10;;;;;;;;;;5061701;28;20233;-64
2023/04/05 13:57:04;;;;;;;5.43;4.93;;;;;;;;;;5065699;28;20216;-64
2023/04/05 13:59:31;;;;;;;5.37;4.83;;;;;;;;;;5059918;28;20594;-64
2023/04/05 14:01:59;;;;;;;5.13;4.63;;;;;;;;;;5059713;28;20234;-64
2023/04/05 14:04:27;;;;;;;4.67;4.27;;;;;;;;;;5061984;28;20870;-62
2023/04/05 14:06:55;;;;;;;6.00;5.10;;;;;;;;;;5075889;28;20270;-63
2023/04/05 14:09:22;;;;;;;5.93;4.90;;;;;;;;;;5060669;28;20286;-62
2023/04/05 14:11:49;;;;;;;5.30;4.80;;;;;;;;;;5084939;28;20643;-62
2023/04/05 14:14:17;;;;;;;5.53;4.80;;;;;;;;;;5071839;28;20225;-64
2023/04/05 14:16:44;;;;;;;5.30;4.80;;;;;;;;;;5088306;28;20273;-63
2023/04/05 14:19:12;;;;;;;5.80;5.40;;;;;;;;;;5085732;28;20282;-64
2023/04/05 14:21:39;;;;;;;7.03;5.23;;;;;;;;;;5073800;28;20201;-64
2023/04/05 14:24:07;;;;;;;5.50;5.00;;;;;;;;;;5075666;28;20299;-64
2023/04/05 14:26:35;;;;;;;8.10;4.87;;;;;;;;;;5074274;28;20209;-63
2023/04/05 14:29:02;;;;;;;5.00;4.60;;;;;;;;;;5089676;28;20365;-64
2023/04/05 14:31:30;;;;;;;5.70;5.20;;;;;;;;;;5090435;28;20690;-64
2023/04/05 14:33:58;;;;;;;5.90;5.30;;;;;;;;;;5089404;28;20351;-63
2023/04/05 14:36:26;;;;;;;5.23;4.83;;;;;;;;;;5091877;28;20258;-62
2023/04/05 14:38:53;;;;;;;5.87;5.27;;;;;;;;;;5074366;28;20220;-64
2023/04/05 14:41:20;;;;;;;5.93;5.40;;;;;;;;;;5066082;28;20213;-63
2023/04/05 14:43:48;;;;;;;5.97;5.37;;;;;;;;;;5075815;28;20645;-63
2023/04/05 14:46:15;;;;;;;5.73;5.23;;;;;;;;;;5074251;28;20205;-64
2023/04/05 14:48:42;;;;;;;6.33;5.70;;;;;;;;;;5061426;28;20224;-64
2023/04/05 14:51:10;;;;;;;5.83;5.33;;;;;;;;;;5062362;28;20240;-64